WetterOnline ( http://www.wetteronline.de )

Wetter aktuell Hildesheim

Aktuelles Wetter: Alfeld (148m)

6-stündlich | Neueste Meldungen
Ortszeit Temperatur Wetter
Mi, 21.02. 13:00 0.9° C bedeckt
Mi, 21.02. 7:00 -3.6° C leicht bewölkt
Mi, 21.02. 1:00 -1.4° C leicht bewölkt
Di, 20.02. 19:00 0.9° C bedeckt
Di, 20.02. 13:00 2.4° C wolkenlos
Di, 20.02. 7:00 -2.8° C bedeckt
Di, 20.02. 1:00 -1.4° C wolkig
Mo, 19.02. 19:00 -0.1° C bewölkt
Ortszeit Temperatur Wetter
Mi, 21.02. 14:00 1.4° C leicht bewölkt
Mi, 21.02. 13:50 1.4° C leicht bewölkt
Mi, 21.02. 13:40 1.3° C leicht bewölkt
Mi, 21.02. 13:30 1.4° C bedeckt
Mi, 21.02. 13:20 1.4° C bedeckt
Mi, 21.02. 13:10 1.4° C bedeckt
Mi, 21.02. 13:00 0.9° C bedeckt
Mi, 21.02. 12:30 0.2° C bedeckt
Mi, 21.02. 12:00 0.2° C wolkig
Mi, 21.02. 11:30 -0.7° C wolkig
Mi, 21.02. 11:00 -1.4° C leicht bewölkt
Ortszeit Relative Feuchte Sichtweite
Mi, 21.02. 13:00 69% 8 km
Mi, 21.02. 7:00 93% 3.4 km
Mi, 21.02. 1:00 89% 2.6 km
Di, 20.02. 19:00 69% 5.0 km
Di, 20.02. 13:00 61% 9 km
Di, 20.02. 7:00 96% 2.8 km
Di, 20.02. 1:00 94% 4.5 km
Mo, 19.02. 19:00 84% 9 km
Ortszeit Relative Feuchte Sichtweite
Mi, 21.02. 14:00 65% 9 km
Mi, 21.02. 13:50 65% -
Mi, 21.02. 13:40 65% -
Mi, 21.02. 13:30 65% 9 km
Mi, 21.02. 13:20 65% -
Mi, 21.02. 13:10 65% -
Mi, 21.02. 13:00 69% 8 km
Mi, 21.02. 12:30 73% 7 km
Mi, 21.02. 12:00 76% 6 km
Mi, 21.02. 11:30 81% 5.0 km
Mi, 21.02. 11:00 81% 5.0 km
Ortszeit Niederschlagsmenge Niederschlagsart
Mi, 21.02. 13:00 0.0 l/m2 in 6 Std. -
Mi, 21.02. 7:00 0.0 l/m2 in 12 Std. -
Mi, 21.02. 1:00 0.0 l/m2 in 6 Std. -
Di, 20.02. 19:00 0.1 l/m2 in 12 Std. Niederschlag
Di, 20.02. 13:00 0.0 l/m2 in 6 Std. -
Di, 20.02. 7:00 0.0 l/m2 in 12 Std. -
Di, 20.02. 1:00 0.0 l/m2 in 6 Std. -
Mo, 19.02. 19:00 0.0 l/m2 in 12 Std. -
Ortszeit Niederschlagsmenge Niederschlagsart
Mi, 21.02. 14:00 0.0 l/m2 in 1 Std. -
Mi, 21.02. 13:50 keine Meldung -
Mi, 21.02. 13:40 keine Meldung -
Mi, 21.02. 13:30 0.0 l/m2 in 1 Std. -
Mi, 21.02. 13:20 keine Meldung -
Mi, 21.02. 13:10 keine Meldung -
Mi, 21.02. 13:00 0.0 l/m2 in 1 Std. -
Mi, 21.02. 12:30 0.0 l/m2 in 1 Std. -
Mi, 21.02. 12:00 0.0 l/m2 in 1 Std. -
Mi, 21.02. 11:30 0.0 l/m2 in 1 Std. -
Mi, 21.02. 11:00 0.0 l/m2 in 1 Std. -
Ortszeit Stärke Spitze Richtung
km/h Bft. km/h Grad Sektor
Mi, 21.02. 13:00 9 2 17 350° N
Mi, 21.02. 7:00 7 2 18 350° N
Mi, 21.02. 1:00 6 1 13 320° NW
Di, 20.02. 19:00 4 1 22 20° N
Di, 20.02. 13:00 11 2 22 80° O
Di, 20.02. 7:00 0 0 7 - -
Di, 20.02. 1:00 0 0 7 - -
Mo, 19.02. 19:00 0 0 18 - -
Ortszeit Stärke Spitze Richtung
km/h Bft. km/h Grad Sektor
Mi, 21.02. 14:00 13 3 24 70° O
Mi, 21.02. 13:50 13 3 - 70° O
Mi, 21.02. 13:40 11 2 - 80° O
Mi, 21.02. 13:30 13 3 22 10° N
Mi, 21.02. 13:20 13 3 - 10° N
Mi, 21.02. 13:10 13 3 - 360° N
Mi, 21.02. 13:00 9 2 17 350° N
Mi, 21.02. 12:30 9 2 15 350° N
Mi, 21.02. 12:00 6 1 15 350° N
Mi, 21.02. 11:30 7 2 15 350° N
Mi, 21.02. 11:00 9 2 13 330° NW
Ortszeit Untergrenze Bedeckung Gattung
total tief tief mittel hoch
Mi, 21.02. 13:00 4800 m 8/8 8/8 - - -
Mi, 21.02. 7:00 6900 m 5/8 2/8 - - -
Mi, 21.02. 1:00 1020 m 3/8 3/8 - - -
Di, 20.02. 19:00 660 m 8/8 8/8 - - -
Di, 20.02. 13:00 - 0/8 0/8 - - -
Di, 20.02. 7:00 3600 m 8/8 8/8 - - -
Di, 20.02. 1:00 2100 m 8/8 2/8 - - -
Mo, 19.02. 19:00 2700 m 7/8 7/8 - - -
Ortszeit Bedeckungsgrad in Achtel und Wolkenuntergrenze
Mi, 21.02. 14:00 2(4800m)
Mi, 21.02. 13:50 2(4800m)
Mi, 21.02. 13:40 4(4800m)
Mi, 21.02. 13:30 8(4800m)
Mi, 21.02. 13:20 8(4800m)
Mi, 21.02. 13:10 8(4800m)
Mi, 21.02. 13:00 8(4800m)
Mi, 21.02. 12:30 8(4800m)
Mi, 21.02. 12:00 5(4800m)
Mi, 21.02. 11:30 2(1020m) 9 9
Mi, 21.02. 11:00 1(990m) 7(5400m)
Ortszeit Luftdruck NN (hPa) Tendenz (hPa in 3 Std.)
Mi, 21.02. 13:00 1026 + 0,1
Mi, 21.02. 7:00 1026 + 0,9
Mi, 21.02. 1:00 1024 + 1,2
Di, 20.02. 19:00 1022 + 1,7
Di, 20.02. 13:00 1019 - 0,3
Di, 20.02. 7:00 1020 + 0,4
Di, 20.02. 1:00 1019 - 0,3
Mo, 19.02. 19:00 1020 - 0,2
Ortszeit Luftdruck NN (hPa) Tendenz (hPa in 3 Std.)
Mi, 21.02. 14:00 1026 - 0,5
Mi, 21.02. 13:50 1026 keine Meldung
Mi, 21.02. 13:40 1026 keine Meldung
Mi, 21.02. 13:30 1026 0,0
Mi, 21.02. 13:20 1026 keine Meldung
Mi, 21.02. 13:10 1026 keine Meldung
Mi, 21.02. 13:00 1026 + 0,1
Mi, 21.02. 12:30 1026 0,0
Mi, 21.02. 12:00 1026 - 0,1
Mi, 21.02. 11:30 1027 + 0,4
Mi, 21.02. 11:00 1027 + 0,6
Ortszeit Schneehöhe (cm)
Mi, 21.02. 13:00 0
Mi, 21.02. 7:00 0
Mi, 21.02. 1:00 0
Di, 20.02. 19:00 0
Di, 20.02. 13:00 0
Di, 20.02. 7:00 0
Di, 20.02. 1:00 0
Mo, 19.02. 19:00 0
Ortszeit Schneehöhe (cm)
Mi, 21.02. 14:00 0
Mi, 21.02. 13:50 0
Mi, 21.02. 13:40 0
Mi, 21.02. 13:30 0
Mi, 21.02. 13:20 0
Mi, 21.02. 13:10 0
Mi, 21.02. 13:00 0
Mi, 21.02. 12:30 0
Mi, 21.02. 12:00 0
Mi, 21.02. 11:30 0
Mi, 21.02. 11:00 0
Link zu dieser Seite / Seite empfehlen

Das Wetter in ...